sensor_id;sensor_type;location;lat;lon;timestamp;P1;durP1;ratioP1;P2;durP2;ratioP2
73776;SDS011;62088;50.240;2.696;2022-09-12T00:02:01;10.40;;;5.43;;
73776;SDS011;62088;50.240;2.696;2022-09-12T00:04:29;7.82;;;5.30;;
73776;SDS011;62088;50.240;2.696;2022-09-12T00:06:56;7.95;;;5.43;;
73776;SDS011;62088;50.240;2.696;2022-09-12T00:09:23;8.23;;;5.22;;
73776;SDS011;62088;50.240;2.696;2022-09-12T00:11:49;11.25;;;5.90;;
73776;SDS011;62088;50.240;2.696;2022-09-12T00:14:17;8.23;;;4.97;;
73776;SDS011;62088;50.240;2.696;2022-09-12T00:16:44;8.75;;;4.93;;
73776;SDS011;62088;50.240;2.696;2022-09-12T00:19:12;8.18;;;4.78;;
73776;SDS011;62088;50.240;2.696;2022-09-12T00:21:39;10.82;;;5.13;;
73776;SDS011;62088;50.240;2.696;2022-09-12T00:24:07;8.05;;;4.85;;
73776;SDS011;62088;50.240;2.696;2022-09-12T00:26:35;6.13;;;5.13;;
73776;SDS011;62088;50.240;2.696;2022-09-12T00:29:03;7.43;;;5.05;;
73776;SDS011;62088;50.240;2.696;2022-09-12T00:31:29;8.20;;;4.97;;
73776;SDS011;62088;50.240;2.696;2022-09-12T00:33:57;9.13;;;4.80;;
73776;SDS011;62088;50.240;2.696;2022-09-12T00:36:26;7.43;;;4.80;;
73776;SDS011;62088;50.240;2.696;2022-09-12T00:38:55;6.07;;;4.57;;
73776;SDS011;62088;50.240;2.696;2022-09-12T00:41:32;9.85;;;4.97;;
73776;SDS011;62088;50.240;2.696;2022-09-12T00:46:49;7.82;;;5.15;;
73776;SDS011;62088;50.240;2.696;2022-09-12T00:49:23;9.18;;;4.95;;
73776;SDS011;62088;50.240;2.696;2022-09-12T00:52:14;8.73;;;4.70;;
73776;SDS011;62088;50.240;2.696;2022-09-12T00:54:57;14.75;;;5.30;;
73776;SDS011;62088;50.240;2.696;2022-09-12T00:57:59;6.68;;;4.75;;
73776;SDS011;62088;50.240;2.696;2022-09-12T01:00:27;9.63;;;5.15;;
73776;SDS011;62088;50.240;2.696;2022-09-12T01:02:56;10.10;;;4.60;;
73776;SDS011;62088;50.240;2.696;2022-09-12T01:05:30;6.95;;;4.20;;
73776;SDS011;62088;50.240;2.696;2022-09-12T01:08:03;7.20;;;4.55;;
73776;SDS011;62088;50.240;2.696;2022-09-12T01:10:32;8.50;;;5.40;;
73776;SDS011;62088;50.240;2.696;2022-09-12T01:13:02;9.43;;;5.00;;
73776;SDS011;62088;50.240;2.696;2022-09-12T01:15:30;10.98;;;5.30;;
73776;SDS011;62088;50.240;2.696;2022-09-12T01:18:01;8.07;;;5.10;;
73776;SDS011;62088;50.240;2.696;2022-09-12T01:20:40;10.30;;;5.13;;
73776;SDS011;62088;50.240;2.696;2022-09-12T01:26:20;11.80;;;5.72;;
73776;SDS011;62088;50.240;2.696;2022-09-12T01:31:56;8.52;;;5.20;;
73776;SDS011;62088;50.240;2.696;2022-09-12T01:46:05;7.30;;;5.03;;
73776;SDS011;62088;50.240;2.696;2022-09-12T01:48:19;9.20;;;5.05;;
73776;SDS011;62088;50.240;2.696;2022-09-12T01:53:36;9.88;;;5.47;;
73776;SDS011;62088;50.240;2.696;2022-09-12T01:56:17;7.45;;;5.68;;
73776;SDS011;62088;50.240;2.696;2022-09-12T02:01:31;7.63;;;4.75;;
73776;SDS011;62088;50.240;2.696;2022-09-12T02:06:38;7.68;;;4.50;;
73776;SDS011;62088;50.240;2.696;2022-09-12T02:11:52;8.25;;;4.85;;
73776;SDS011;62088;50.240;2.696;2022-09-12T02:14:24;8.35;;;4.93;;
73776;SDS011;62088;50.240;2.696;2022-09-12T02:16:57;7.63;;;4.88;;
73776;SDS011;62088;50.240;2.696;2022-09-12T02:19:28;9.00;;;4.90;;
73776;SDS011;62088;50.240;2.696;2022-09-12T02:22:02;11.00;;;4.70;;
73776;SDS011;62088;50.240;2.696;2022-09-12T02:24:40;7.05;;;4.28;;
73776;SDS011;62088;50.240;2.696;2022-09-12T02:28:12;12.27;;;5.65;;
73776;SDS011;62088;50.240;2.696;2022-09-12T02:30:18;9.02;;;5.57;;
73776;SDS011;62088;50.240;2.696;2022-09-12T02:32:54;6.90;;;4.80;;
73776;SDS011;62088;50.240;2.696;2022-09-12T02:35:31;8.63;;;4.95;;
73776;SDS011;62088;50.240;2.696;2022-09-12T02:38:13;10.93;;;5.70;;
73776;SDS011;62088;50.240;2.696;2022-09-12T02:40:50;7.03;;;4.78;;
73776;SDS011;62088;50.240;2.696;2022-09-12T02:43:17;10.32;;;5.72;;
73776;SDS011;62088;50.240;2.696;2022-09-12T02:45:44;10.25;;;4.75;;
73776;SDS011;62088;50.240;2.696;2022-09-12T02:50:47;9.23;;;5.60;;
73776;SDS011;62088;50.240;2.696;2022-09-12T02:53:14;7.72;;;5.60;;
73776;SDS011;62088;50.240;2.696;2022-09-12T02:55:41;11.15;;;5.85;;
73776;SDS011;62088;50.240;2.696;2022-09-12T02:58:10;9.52;;;6.25;;
73776;SDS011;62088;50.240;2.696;2022-09-12T03:14:25;8.00;;;5.75;;
73776;SDS011;62088;50.240;2.696;2022-09-12T03:17:10;7.68;;;5.75;;
73776;SDS011;62088;50.240;2.696;2022-09-12T03:20:00;9.88;;;6.78;;
73776;SDS011;62088;50.240;2.696;2022-09-12T03:22:51;7.95;;;5.63;;
73776;SDS011;62088;50.240;2.696;2022-09-12T03:25:23;8.23;;;5.97;;
73776;SDS011;62088;50.240;2.696;2022-09-12T03:28:01;11.13;;;6.50;;
73776;SDS011;62088;50.240;2.696;2022-09-12T03:30:38;10.52;;;5.55;;
73776;SDS011;62088;50.240;2.696;2022-09-12T03:33:09;8.60;;;5.80;;
73776;SDS011;62088;50.240;2.696;2022-09-12T03:35:38;7.13;;;5.32;;
73776;SDS011;62088;50.240;2.696;2022-09-12T03:38:05;10.02;;;5.25;;
73776;SDS011;62088;50.240;2.696;2022-09-12T03:40:33;6.43;;;4.72;;
73776;SDS011;62088;50.240;2.696;2022-09-12T03:43:02;9.45;;;5.20;;
73776;SDS011;62088;50.240;2.696;2022-09-12T03:45:30;9.25;;;5.82;;
73776;SDS011;62088;50.240;2.696;2022-09-12T03:47:57;7.55;;;5.20;;
73776;SDS011;62088;50.240;2.696;2022-09-12T03:50:24;9.13;;;5.88;;
73776;SDS011;62088;50.240;2.696;2022-09-12T03:52:51;9.38;;;5.47;;
73776;SDS011;62088;50.240;2.696;2022-09-12T03:55:18;8.13;;;5.28;;
73776;SDS011;62088;50.240;2.696;2022-09-12T03:57:45;8.68;;;5.57;;
73776;SDS011;62088;50.240;2.696;2022-09-12T04:00:12;7.35;;;4.97;;
73776;SDS011;62088;50.240;2.696;2022-09-12T04:02:44;8.05;;;5.43;;
73776;SDS011;62088;50.240;2.696;2022-09-12T04:05:11;8.40;;;5.03;;
73776;SDS011;62088;50.240;2.696;2022-09-12T04:07:38;9.52;;;6.10;;
73776;SDS011;62088;50.240;2.696;2022-09-12T04:10:05;9.13;;;5.20;;
73776;SDS011;62088;50.240;2.696;2022-09-12T04:12:35;7.78;;;5.90;;
73776;SDS011;62088;50.240;2.696;2022-09-12T04:15:01;13.38;;;5.22;;
73776;SDS011;62088;50.240;2.696;2022-09-12T04:17:29;7.90;;;5.30;;
73776;SDS011;62088;50.240;2.696;2022-09-12T04:19:56;13.85;;;6.05;;
73776;SDS011;62088;50.240;2.696;2022-09-12T04:22:22;9.73;;;5.53;;
73776;SDS011;62088;50.240;2.696;2022-09-12T04:24:49;7.50;;;5.28;;
73776;SDS011;62088;50.240;2.696;2022-09-12T04:27:17;5.85;;;4.53;;
73776;SDS011;62088;50.240;2.696;2022-09-12T04:29:43;10.98;;;6.07;;
73776;SDS011;62088;50.240;2.696;2022-09-12T04:32:10;7.50;;;4.95;;
73776;SDS011;62088;50.240;2.696;2022-09-12T04:34:38;7.82;;;5.10;;
73776;SDS011;62088;50.240;2.696;2022-09-12T04:37:05;7.15;;;4.70;;
73776;SDS011;62088;50.240;2.696;2022-09-12T04:39:31;9.57;;;5.22;;
73776;SDS011;62088;50.240;2.696;2022-09-12T04:41:58;11.52;;;5.32;;
73776;SDS011;62088;50.240;2.696;2022-09-12T04:44:25;10.73;;;4.95;;
73776;SDS011;62088;50.240;2.696;2022-09-12T04:46:52;12.90;;;5.60;;
73776;SDS011;62088;50.240;2.696;2022-09-12T04:49:19;6.13;;;4.82;;
73776;SDS011;62088;50.240;2.696;2022-09-12T04:51:46;18.17;;;5.85;;
73776;SDS011;62088;50.240;2.696;2022-09-12T04:54:14;11.88;;;6.43;;
73776;SDS011;62088;50.240;2.696;2022-09-12T04:56:47;11.13;;;6.47;;
73776;SDS011;62088;50.240;2.696;2022-09-12T04:59:16;7.93;;;4.85;;
73776;SDS011;62088;50.240;2.696;2022-09-12T05:01:45;8.13;;;5.53;;
73776;SDS011;62088;50.240;2.696;2022-09-12T05:04:12;8.02;;;4.63;;
73776;SDS011;62088;50.240;2.696;2022-09-12T05:06:40;11.15;;;5.45;;
73776;SDS011;62088;50.240;2.696;2022-09-12T05:09:09;10.18;;;5.35;;
73776;SDS011;62088;50.240;2.696;2022-09-12T05:11:38;7.25;;;5.30;;
73776;SDS011;62088;50.240;2.696;2022-09-12T05:14:26;7.70;;;5.30;;
73776;SDS011;62088;50.240;2.696;2022-09-12T05:16:53;10.48;;;5.45;;
73776;SDS011;62088;50.240;2.696;2022-09-12T05:19:25;6.68;;;4.90;;
73776;SDS011;62088;50.240;2.696;2022-09-12T05:21:52;10.45;;;5.78;;
73776;SDS011;62088;50.240;2.696;2022-09-12T05:24:19;9.00;;;5.75;;
73776;SDS011;62088;50.240;2.696;2022-09-12T05:26:46;9.50;;;5.05;;
73776;SDS011;62088;50.240;2.696;2022-09-12T05:29:13;9.15;;;5.00;;
73776;SDS011;62088;50.240;2.696;2022-09-12T05:31:40;9.32;;;4.90;;
73776;SDS011;62088;50.240;2.696;2022-09-12T05:34:07;9.10;;;4.63;;
73776;SDS011;62088;50.240;2.696;2022-09-12T05:36:35;10.00;;;6.07;;
73776;SDS011;62088;50.240;2.696;2022-09-12T05:39:02;13.40;;;5.47;;
73776;SDS011;62088;50.240;2.696;2022-09-12T05:41:30;12.18;;;6.10;;
73776;SDS011;62088;50.240;2.696;2022-09-12T05:44:00;9.27;;;5.93;;
73776;SDS011;62088;50.240;2.696;2022-09-12T05:46:30;11.68;;;6.43;;
73776;SDS011;62088;50.240;2.696;2022-09-12T05:49:02;6.88;;;5.50;;
73776;SDS011;62088;50.240;2.696;2022-09-12T05:51:34;11.25;;;4.80;;
73776;SDS011;62088;50.240;2.696;2022-09-12T05:54:04;13.82;;;6.32;;
73776;SDS011;62088;50.240;2.696;2022-09-12T05:56:33;11.70;;;5.97;;
73776;SDS011;62088;50.240;2.696;2022-09-12T05:59:06;9.32;;;5.07;;
73776;SDS011;62088;50.240;2.696;2022-09-12T06:01:37;9.30;;;5.47;;
73776;SDS011;62088;50.240;2.696;2022-09-12T06:04:05;9.00;;;5.75;;
73776;SDS011;62088;50.240;2.696;2022-09-12T06:06:37;8.20;;;6.00;;
73776;SDS011;62088;50.240;2.696;2022-09-12T06:09:07;8.25;;;6.13;;
73776;SDS011;62088;50.240;2.696;2022-09-12T06:11:35;7.63;;;5.35;;
73776;SDS011;62088;50.240;2.696;2022-09-12T06:14:03;7.75;;;5.43;;
73776;SDS011;62088;50.240;2.696;2022-09-12T06:16:31;9.88;;;6.00;;
73776;SDS011;62088;50.240;2.696;2022-09-12T06:19:01;10.52;;;5.78;;
73776;SDS011;62088;50.240;2.696;2022-09-12T06:21:32;9.88;;;6.30;;
73776;SDS011;62088;50.240;2.696;2022-09-12T06:24:03;11.48;;;6.47;;
73776;SDS011;62088;50.240;2.696;2022-09-12T06:26:30;10.00;;;6.68;;
73776;SDS011;62088;50.240;2.696;2022-09-12T06:28:58;12.45;;;7.05;;
73776;SDS011;62088;50.240;2.696;2022-09-12T06:31:30;8.75;;;6.43;;
73776;SDS011;62088;50.240;2.696;2022-09-12T06:33:59;12.75;;;7.40;;
73776;SDS011;62088;50.240;2.696;2022-09-12T06:36:30;10.65;;;7.22;;
73776;SDS011;62088;50.240;2.696;2022-09-12T06:38:59;11.60;;;8.10;;
73776;SDS011;62088;50.240;2.696;2022-09-12T06:41:37;12.93;;;10.02;;
73776;SDS011;62088;50.240;2.696;2022-09-12T06:44:11;15.85;;;9.30;;
73776;SDS011;62088;50.240;2.696;2022-09-12T06:46:48;13.25;;;8.82;;
73776;SDS011;62088;50.240;2.696;2022-09-12T06:49:15;12.73;;;9.13;;
73776;SDS011;62088;50.240;2.696;2022-09-12T06:51:43;13.88;;;9.50;;
73776;SDS011;62088;50.240;2.696;2022-09-12T06:54:13;16.10;;;11.07;;
73776;SDS011;62088;50.240;2.696;2022-09-12T06:56:42;19.55;;;13.40;;
73776;SDS011;62088;50.240;2.696;2022-09-12T06:59:10;14.73;;;11.48;;
73776;SDS011;62088;50.240;2.696;2022-09-12T07:01:37;16.63;;;12.93;;
73776;SDS011;62088;50.240;2.696;2022-09-12T07:04:05;13.57;;;11.10;;
73776;SDS011;62088;50.240;2.696;2022-09-12T07:09:29;11.52;;;9.80;;
73776;SDS011;62088;50.240;2.696;2022-09-12T07:11:56;12.07;;;9.52;;
73776;SDS011;62088;50.240;2.696;2022-09-12T07:14:23;11.93;;;8.85;;
73776;SDS011;62088;50.240;2.696;2022-09-12T07:16:51;12.57;;;8.45;;
73776;SDS011;62088;50.240;2.696;2022-09-12T07:19:18;12.02;;;9.07;;
73776;SDS011;62088;50.240;2.696;2022-09-12T07:21:45;9.82;;;7.75;;
73776;SDS011;62088;50.240;2.696;2022-09-12T07:24:12;9.55;;;7.25;;
73776;SDS011;62088;50.240;2.696;2022-09-12T07:26:39;9.30;;;6.88;;
73776;SDS011;62088;50.240;2.696;2022-09-12T07:29:11;8.45;;;6.78;;
73776;SDS011;62088;50.240;2.696;2022-09-12T07:32:01;12.15;;;7.22;;
73776;SDS011;62088;50.240;2.696;2022-09-12T07:34:29;11.88;;;7.35;;
73776;SDS011;62088;50.240;2.696;2022-09-12T07:36:56;11.57;;;7.10;;
73776;SDS011;62088;50.240;2.696;2022-09-12T07:39:24;9.80;;;6.63;;
73776;SDS011;62088;50.240;2.696;2022-09-12T07:41:51;9.25;;;7.15;;
73776;SDS011;62088;50.240;2.696;2022-09-12T07:44:18;10.38;;;7.43;;
73776;SDS011;62088;50.240;2.696;2022-09-12T07:46:45;10.45;;;6.95;;
73776;SDS011;62088;50.240;2.696;2022-09-12T07:49:12;13.07;;;8.00;;
73776;SDS011;62088;50.240;2.696;2022-09-12T07:51:39;9.55;;;7.55;;
73776;SDS011;62088;50.240;2.696;2022-09-12T07:54:06;10.60;;;7.70;;
73776;SDS011;62088;50.240;2.696;2022-09-12T07:56:34;9.63;;;6.90;;
73776;SDS011;62088;50.240;2.696;2022-09-12T07:59:05;8.40;;;6.53;;
73776;SDS011;62088;50.240;2.696;2022-09-12T08:01:33;8.85;;;6.32;;
73776;SDS011;62088;50.240;2.696;2022-09-12T08:04:00;8.68;;;5.88;;
73776;SDS011;62088;50.240;2.696;2022-09-12T08:06:28;11.48;;;5.80;;
73776;SDS011;62088;50.240;2.696;2022-09-12T08:08:57;11.02;;;5.90;;
73776;SDS011;62088;50.240;2.696;2022-09-12T08:11:25;10.20;;;5.70;;
73776;SDS011;62088;50.240;2.696;2022-09-12T08:13:54;8.85;;;5.80;;
73776;SDS011;62088;50.240;2.696;2022-09-12T08:16:31;8.05;;;5.15;;
73776;SDS011;62088;50.240;2.696;2022-09-12T08:18:59;10.75;;;4.90;;
73776;SDS011;62088;50.240;2.696;2022-09-12T08:21:28;7.60;;;5.32;;
73776;SDS011;62088;50.240;2.696;2022-09-12T08:23:58;11.23;;;5.15;;
73776;SDS011;62088;50.240;2.696;2022-09-12T08:26:27;6.97;;;4.35;;
73776;SDS011;62088;50.240;2.696;2022-09-12T08:28:54;6.95;;;4.70;;
73776;SDS011;62088;50.240;2.696;2022-09-12T08:31:22;9.02;;;4.82;;
73776;SDS011;62088;50.240;2.696;2022-09-12T08:33:51;12.30;;;5.25;;
73776;SDS011;62088;50.240;2.696;2022-09-12T08:36:21;9.68;;;5.32;;
73776;SDS011;62088;50.240;2.696;2022-09-12T08:38:52;9.13;;;5.00;;
73776;SDS011;62088;50.240;2.696;2022-09-12T08:41:28;11.13;;;4.22;;
73776;SDS011;62088;50.240;2.696;2022-09-12T08:46:31;10.35;;;4.70;;
73776;SDS011;62088;50.240;2.696;2022-09-12T08:49:08;8.57;;;3.90;;
73776;SDS011;62088;50.240;2.696;2022-09-12T08:51:38;7.95;;;3.97;;
73776;SDS011;62088;50.240;2.696;2022-09-12T08:54:19;9.27;;;3.47;;
73776;SDS011;62088;50.240;2.696;2022-09-12T08:56:49;6.35;;;3.47;;
73776;SDS011;62088;50.240;2.696;2022-09-12T08:59:22;8.15;;;3.80;;
73776;SDS011;62088;50.240;2.696;2022-09-12T09:01:49;5.75;;;3.63;;
73776;SDS011;62088;50.240;2.696;2022-09-12T09:04:27;7.03;;;3.92;;
73776;SDS011;62088;50.240;2.696;2022-09-12T09:07:18;7.57;;;3.92;;
73776;SDS011;62088;50.240;2.696;2022-09-12T09:13:10;8.68;;;2.58;;
73776;SDS011;62088;50.240;2.696;2022-09-12T09:16:19;4.50;;;2.55;;
73776;SDS011;62088;50.240;2.696;2022-09-12T09:19:22;6.90;;;2.60;;
73776;SDS011;62088;50.240;2.696;2022-09-12T09:21:59;4.82;;;2.47;;
73776;SDS011;62088;50.240;2.696;2022-09-12T09:24:48;3.92;;;2.00;;
73776;SDS011;62088;50.240;2.696;2022-09-12T09:30:16;8.95;;;2.55;;
73776;SDS011;62088;50.240;2.696;2022-09-12T09:32:46;5.30;;;1.73;;
73776;SDS011;62088;50.240;2.696;2022-09-12T09:40:44;4.55;;;2.05;;
73776;SDS011;62088;50.240;2.696;2022-09-12T09:45:53;5.68;;;1.98;;
73776;SDS011;62088;50.240;2.696;2022-09-12T09:48:23;7.22;;;1.90;;
73776;SDS011;62088;50.240;2.696;2022-09-12T09:50:51;5.97;;;1.90;;
73776;SDS011;62088;50.240;2.696;2022-09-12T09:55:57;6.40;;;2.10;;
73776;SDS011;62088;50.240;2.696;2022-09-12T09:58:31;5.53;;;2.40;;
73776;SDS011;62088;50.240;2.696;2022-09-12T10:01:02;5.45;;;1.85;;
73776;SDS011;62088;50.240;2.696;2022-09-12T10:03:49;6.38;;;2.00;;
73776;SDS011;62088;50.240;2.696;2022-09-12T10:08:46;5.30;;;2.00;;
73776;SDS011;62088;50.240;2.696;2022-09-12T10:16:20;4.80;;;1.65;;
73776;SDS011;62088;50.240;2.696;2022-09-12T10:19:10;7.45;;;1.90;;
73776;SDS011;62088;50.240;2.696;2022-09-12T10:21:50;5.53;;;1.55;;
73776;SDS011;62088;50.240;2.696;2022-09-12T10:27:05;3.45;;;1.27;;
73776;SDS011;62088;50.240;2.696;2022-09-12T10:29:43;4.85;;;1.55;;
73776;SDS011;62088;50.240;2.696;2022-09-12T10:32:29;2.90;;;1.20;;
73776;SDS011;62088;50.240;2.696;2022-09-12T10:35:18;3.07;;;1.27;;
73776;SDS011;62088;50.240;2.696;2022-09-12T10:38:06;4.63;;;1.42;;
73776;SDS011;62088;50.240;2.696;2022-09-12T10:40:56;4.20;;;1.50;;
73776;SDS011;62088;50.240;2.696;2022-09-12T10:43:33;15.00;;;1.70;;
73776;SDS011;62088;50.240;2.696;2022-09-12T10:48:42;8.25;;;1.48;;
73776;SDS011;62088;50.240;2.696;2022-09-12T10:53:49;2.38;;;1.00;;
73776;SDS011;62088;50.240;2.696;2022-09-12T10:56:23;3.95;;;1.40;;
73776;SDS011;62088;50.240;2.696;2022-09-12T11:01:47;18.60;;;1.35;;
73776;SDS011;62088;50.240;2.696;2022-09-12T11:04:21;3.42;;;1.10;;
73776;SDS011;62088;50.240;2.696;2022-09-12T11:07:20;8.57;;;1.15;;
73776;SDS011;62088;50.240;2.696;2022-09-12T11:15:54;3.05;;;1.00;;
73776;SDS011;62088;50.240;2.696;2022-09-12T11:24:16;2.30;;;1.05;;
73776;SDS011;62088;50.240;2.696;2022-09-12T11:30:26;4.90;;;1.10;;
73776;SDS011;62088;50.240;2.696;2022-09-12T11:40:45;3.05;;;1.00;;
73776;SDS011;62088;50.240;2.696;2022-09-12T11:46:18;4.20;;;1.00;;
73776;SDS011;62088;50.240;2.696;2022-09-12T11:49:00;1.55;;;0.80;;
73776;SDS011;62088;50.240;2.696;2022-09-12T11:59:55;3.28;;;1.00;;
73776;SDS011;62088;50.240;2.696;2022-09-12T12:02:38;1.98;;;0.77;;
73776;SDS011;62088;50.240;2.696;2022-09-12T12:07:55;3.22;;;0.90;;
73776;SDS011;62088;50.240;2.696;2022-09-12T12:10:37;3.60;;;1.02;;
73776;SDS011;62088;50.240;2.696;2022-09-12T12:13:15;2.67;;;0.90;;
73776;SDS011;62088;50.240;2.696;2022-09-12T12:15:47;3.08;;;0.95;;
73776;SDS011;62088;50.240;2.696;2022-09-12T12:18:18;4.18;;;0.90;;
73776;SDS011;62088;50.240;2.696;2022-09-12T12:20:52;2.28;;;0.80;;
73776;SDS011;62088;50.240;2.696;2022-09-12T12:23:31;2.10;;;0.88;;
73776;SDS011;62088;50.240;2.696;2022-09-12T12:26:01;4.45;;;0.93;;
73776;SDS011;62088;50.240;2.696;2022-09-12T12:31:08;2.72;;;1.05;;
73776;SDS011;62088;50.240;2.696;2022-09-12T12:36:06;2.85;;;0.80;;
73776;SDS011;62088;50.240;2.696;2022-09-12T12:38:35;44.97;;;2.95;;
73776;SDS011;62088;50.240;2.696;2022-09-12T12:43:44;8.80;;;1.02;;
73776;SDS011;62088;50.240;2.696;2022-09-12T12:46:16;2.22;;;0.80;;
73776;SDS011;62088;50.240;2.696;2022-09-12T12:51:37;7.25;;;0.90;;
73776;SDS011;62088;50.240;2.696;2022-09-12T12:54:28;4.53;;;0.93;;
73776;SDS011;62088;50.240;2.696;2022-09-12T12:59:50;2.20;;;0.80;;
73776;SDS011;62088;50.240;2.696;2022-09-12T13:02:26;4.32;;;0.93;;
73776;SDS011;62088;50.240;2.696;2022-09-12T13:05:14;2.17;;;0.80;;
73776;SDS011;62088;50.240;2.696;2022-09-12T13:07:44;3.53;;;1.00;;
73776;SDS011;62088;50.240;2.696;2022-09-12T13:10:22;2.80;;;0.77;;
73776;SDS011;62088;50.240;2.696;2022-09-12T13:12:55;3.38;;;0.90;;
73776;SDS011;62088;50.240;2.696;2022-09-12T13:18:11;5.57;;;0.95;;
73776;SDS011;62088;50.240;2.696;2022-09-12T13:20:52;2.35;;;1.00;;
73776;SDS011;62088;50.240;2.696;2022-09-12T13:23:26;2.58;;;0.95;;
73776;SDS011;62088;50.240;2.696;2022-09-12T13:25:55;2.03;;;0.82;;
73776;SDS011;62088;50.240;2.696;2022-09-12T13:28:24;1.98;;;0.90;;
73776;SDS011;62088;50.240;2.696;2022-09-12T13:31:00;2.35;;;0.95;;
73776;SDS011;62088;50.240;2.696;2022-09-12T13:33:44;2.67;;;1.00;;
73776;SDS011;62088;50.240;2.696;2022-09-12T13:36:19;2.45;;;1.10;;
73776;SDS011;62088;50.240;2.696;2022-09-12T13:44:28;4.40;;;1.00;;
73776;SDS011;62088;50.240;2.696;2022-09-12T13:47:00;2.00;;;0.80;;
73776;SDS011;62088;50.240;2.696;2022-09-12T13:49:35;2.13;;;0.90;;
73776;SDS011;62088;50.240;2.696;2022-09-12T13:52:06;3.65;;;0.80;;
73776;SDS011;62088;50.240;2.696;2022-09-12T13:54:44;1.90;;;0.80;;
73776;SDS011;62088;50.240;2.696;2022-09-12T13:59:58;1.90;;;0.75;;
73776;SDS011;62088;50.240;2.696;2022-09-12T14:02:33;3.70;;;0.85;;
73776;SDS011;62088;50.240;2.696;2022-09-12T14:05:10;4.63;;;0.90;;
73776;SDS011;62088;50.240;2.696;2022-09-12T14:07:57;2.65;;;0.90;;
73776;SDS011;62088;50.240;2.696;2022-09-12T14:13:20;4.38;;;1.27;;
73776;SDS011;62088;50.240;2.696;2022-09-12T14:15:50;12.95;;;2.67;;
73776;SDS011;62088;50.240;2.696;2022-09-12T14:18:21;14.40;;;2.75;;
73776;SDS011;62088;50.240;2.696;2022-09-12T14:21:01;2.05;;;0.77;;
73776;SDS011;62088;50.240;2.696;2022-09-12T14:23:41;12.00;;;1.65;;
73776;SDS011;62088;50.240;2.696;2022-09-12T14:26:13;1.15;;;0.65;;
73776;SDS011;62088;50.240;2.696;2022-09-12T14:28:43;2.85;;;0.90;;
73776;SDS011;62088;50.240;2.696;2022-09-12T14:33:45;2.28;;;0.90;;
73776;SDS011;62088;50.240;2.696;2022-09-12T14:39:05;5.55;;;1.05;;
73776;SDS011;62088;50.240;2.696;2022-09-12T14:41:41;27.65;;;1.50;;
73776;SDS011;62088;50.240;2.696;2022-09-12T14:44:18;2.35;;;0.93;;
73776;SDS011;62088;50.240;2.696;2022-09-12T14:46:48;2.92;;;0.82;;
73776;SDS011;62088;50.240;2.696;2022-09-12T14:49:32;2.22;;;0.75;;
73776;SDS011;62088;50.240;2.696;2022-09-12T14:52:04;2.88;;;0.80;;
73776;SDS011;62088;50.240;2.696;2022-09-12T14:54:35;2.33;;;0.77;;
73776;SDS011;62088;50.240;2.696;2022-09-12T14:58:05;3.22;;;0.90;;
73776;SDS011;62088;50.240;2.696;2022-09-12T15:02:37;2.63;;;0.90;;
73776;SDS011;62088;50.240;2.696;2022-09-12T15:07:37;6.20;;;1.00;;
73776;SDS011;62088;50.240;2.696;2022-09-12T15:10:25;4.85;;;1.20;;
73776;SDS011;62088;50.240;2.696;2022-09-12T15:15:37;2.90;;;1.17;;
73776;SDS011;62088;50.240;2.696;2022-09-12T15:18:05;5.28;;;1.00;;
73776;SDS011;62088;50.240;2.696;2022-09-12T15:20:37;2.58;;;0.80;;
73776;SDS011;62088;50.240;2.696;2022-09-12T15:23:11;4.20;;;1.45;;
73776;SDS011;62088;50.240;2.696;2022-09-12T15:25:45;2.63;;;1.10;;
73776;SDS011;62088;50.240;2.696;2022-09-12T15:28:14;7.13;;;1.48;;
73776;SDS011;62088;50.240;2.696;2022-09-12T15:30:48;4.22;;;0.90;;
73776;SDS011;62088;50.240;2.696;2022-09-12T15:33:17;3.78;;;1.00;;
73776;SDS011;62088;50.240;2.696;2022-09-12T15:35:46;2.05;;;1.00;;
73776;SDS011;62088;50.240;2.696;2022-09-12T15:38:13;4.95;;;1.00;;
73776;SDS011;62088;50.240;2.696;2022-09-12T15:40:40;2.53;;;1.00;;
73776;SDS011;62088;50.240;2.696;2022-09-12T15:43:08;6.63;;;1.02;;
73776;SDS011;62088;50.240;2.696;2022-09-12T15:45:37;1.98;;;0.80;;
73776;SDS011;62088;50.240;2.696;2022-09-12T15:48:04;6.60;;;1.13;;
73776;SDS011;62088;50.240;2.696;2022-09-12T15:50:31;3.83;;;0.82;;
73776;SDS011;62088;50.240;2.696;2022-09-12T15:52:58;2.03;;;0.88;;
73776;SDS011;62088;50.240;2.696;2022-09-12T15:55:29;3.10;;;0.98;;
73776;SDS011;62088;50.240;2.696;2022-09-12T15:57:57;2.17;;;0.85;;
73776;SDS011;62088;50.240;2.696;2022-09-12T16:00:31;3.90;;;0.90;;
73776;SDS011;62088;50.240;2.696;2022-09-12T16:02:58;4.40;;;1.00;;
73776;SDS011;62088;50.240;2.696;2022-09-12T16:05:26;5.40;;;0.90;;
73776;SDS011;62088;50.240;2.696;2022-09-12T16:07:53;3.45;;;0.95;;
73776;SDS011;62088;50.240;2.696;2022-09-12T16:10:22;5.03;;;1.05;;
73776;SDS011;62088;50.240;2.696;2022-09-12T16:12:51;2.70;;;0.98;;
73776;SDS011;62088;50.240;2.696;2022-09-12T16:15:19;2.25;;;1.00;;
73776;SDS011;62088;50.240;2.696;2022-09-12T16:17:48;6.22;;;1.00;;
73776;SDS011;62088;50.240;2.696;2022-09-12T16:20:15;2.03;;;1.02;;
73776;SDS011;62088;50.240;2.696;2022-09-12T16:22:44;2.35;;;1.00;;
73776;SDS011;62088;50.240;2.696;2022-09-12T16:25:11;8.60;;;0.90;;
73776;SDS011;62088;50.240;2.696;2022-09-12T16:27:38;6.85;;;1.10;;
73776;SDS011;62088;50.240;2.696;2022-09-12T16:30:06;5.03;;;1.10;;
73776;SDS011;62088;50.240;2.696;2022-09-12T16:32:33;2.97;;;1.00;;
73776;SDS011;62088;50.240;2.696;2022-09-12T16:35:01;2.70;;;1.10;;
73776;SDS011;62088;50.240;2.696;2022-09-12T16:37:30;8.25;;;1.33;;
73776;SDS011;62088;50.240;2.696;2022-09-12T16:39:57;8.25;;;1.00;;
73776;SDS011;62088;50.240;2.696;2022-09-12T16:42:24;5.20;;;1.30;;
73776;SDS011;62088;50.240;2.696;2022-09-12T16:44:51;3.15;;;1.20;;
73776;SDS011;62088;50.240;2.696;2022-09-12T16:47:18;4.55;;;0.98;;
73776;SDS011;62088;50.240;2.696;2022-09-12T16:49:45;2.58;;;1.08;;
73776;SDS011;62088;50.240;2.696;2022-09-12T16:52:12;2.90;;;1.27;;
73776;SDS011;62088;50.240;2.696;2022-09-12T16:54:42;2.35;;;1.10;;
73776;SDS011;62088;50.240;2.696;2022-09-12T16:57:11;6.75;;;1.20;;
73776;SDS011;62088;50.240;2.696;2022-09-12T16:59:38;3.55;;;1.23;;
73776;SDS011;62088;50.240;2.696;2022-09-12T17:02:06;3.35;;;1.05;;
73776;SDS011;62088;50.240;2.696;2022-09-12T17:04:36;3.80;;;1.17;;
73776;SDS011;62088;50.240;2.696;2022-09-12T17:07:03;2.72;;;1.00;;
73776;SDS011;62088;50.240;2.696;2022-09-12T17:09:30;4.10;;;1.20;;
73776;SDS011;62088;50.240;2.696;2022-09-12T17:11:57;7.10;;;1.13;;
73776;SDS011;62088;50.240;2.696;2022-09-12T17:14:24;2.28;;;0.90;;
73776;SDS011;62088;50.240;2.696;2022-09-12T17:16:51;3.00;;;1.00;;
73776;SDS011;62088;50.240;2.696;2022-09-12T17:19:19;4.95;;;1.35;;
73776;SDS011;62088;50.240;2.696;2022-09-12T17:21:49;2.78;;;1.00;;
73776;SDS011;62088;50.240;2.696;2022-09-12T17:24:17;4.70;;;1.02;;
73776;SDS011;62088;50.240;2.696;2022-09-12T17:26:45;2.85;;;1.13;;
73776;SDS011;62088;50.240;2.696;2022-09-12T17:29:12;3.95;;;1.00;;
73776;SDS011;62088;50.240;2.696;2022-09-12T17:31:40;4.20;;;1.17;;
73776;SDS011;62088;50.240;2.696;2022-09-12T17:34:08;2.65;;;0.90;;
73776;SDS011;62088;50.240;2.696;2022-09-12T17:36:39;3.83;;;1.25;;
73776;SDS011;62088;50.240;2.696;2022-09-12T17:39:10;5.05;;;1.10;;
73776;SDS011;62088;50.240;2.696;2022-09-12T17:41:39;2.55;;;0.85;;
73776;SDS011;62088;50.240;2.696;2022-09-12T17:44:08;3.30;;;0.80;;
73776;SDS011;62088;50.240;2.696;2022-09-12T17:46:38;3.00;;;0.90;;
73776;SDS011;62088;50.240;2.696;2022-09-12T17:49:12;5.78;;;1.20;;
73776;SDS011;62088;50.240;2.696;2022-09-12T17:51:40;5.82;;;1.25;;
73776;SDS011;62088;50.240;2.696;2022-09-12T17:54:10;8.50;;;1.85;;
73776;SDS011;62088;50.240;2.696;2022-09-12T17:56:39;10.20;;;1.00;;
73776;SDS011;62088;50.240;2.696;2022-09-12T17:59:07;5.05;;;1.60;;